Sapphire, NC (28774)

09:48 PM EDT del 26 Luglio 2016 (GMT -0400)
Burlingame | | Change Station

Alt. 3104 ft 35.11 °N, 82.98 °W | Updated 59 seconds ago

Scattered Clouds
Nubi sparse
73.0 °F
Sembra 72 °F
N
0.0
Vento Variabile Vento da NE
Gusts 0.0 mph

Oggi
Massima -- | Minima -- °F
--% Possibilità di precip.
Ieri
Massima -- | Minima -- °F
Precip. -- in
Pressione 30.10 in
Visibilità 7.0 miglia
Nuvole Nubi sparse 10000 ft
Indice di calore 72 °F
Punto di rugiada 69 °F
Umidità 87%
Piovosità 0.00 in
Spessore del manto nevoso Non disponibile.
6:37 AM 8:39 PM
Gobba a levante, 49% visible
METAR K1A5 270140Z AUTO 00000KT 7SM SCT100 23/22 A3010 RMK AO2 T02280216
Pressione 30.10 in
Visibilità 7.0 miglia
Nuvole Nubi sparse 10000 ft
Indice di calore 72 °F
Punto di rugiada 69 °F
Umidità 87%
Piovosità 0.00 in
Spessore del manto nevoso Non disponibile.
6:37 AM 8:39 PM
Gobba a levante, 49% visible
METAR K1A5 270140Z AUTO 00000KT 7SM SCT100 23/22 A3010 RMK AO2 T02280216

10-Day Weather Forecast

Almanac

Astronomia

Jul. 26, 2016 Alba Tramonto
Ora attuale
Crepuscolo civile
Crepuscolo nautico
Crepuscolo astronomico
Luna
Estensione della luce visibile
Lunghezza del giorno
Tomorrow will be .
, % of the Moon is Illuminated

Gli estremi di oggi

State Highs State Lows

Community

WunderPhotos

Upload Photos

1,927,772 foto caricate!

WunderBlog® & News

Nearby

Qualità dell'aria

  Qualità dell'aria Indice AQ Inquinante
Not available.

Profondità neve

Stazione Profondità Altitudine

Attività sismica

Città  Distanza Mag. Data & Ora
Minimo Magnitudo Mostrato è 2.5.

Temperature delle acque costiere

Località Temperatura

Stations

Stazioni meteo nelle vicinanze

Ubicazione della stazione Temp. Raffreddamento del vento Punto di rugiada Umidità Vento Precip. Alt. Aggiornato Tipo
                   

Watches & Warnings

There are currently no watches in effect.